sensor_id;sensor_type;location;lat;lon;timestamp;temperature;humidity
16964;DHT22;8598;50.508;10.436;2023-08-30T00:01:26;11.20;99.90
16964;DHT22;8598;50.508;10.436;2023-08-30T00:03:53;11.20;99.90
16964;DHT22;8598;50.508;10.436;2023-08-30T00:06:20;11.20;99.90
16964;DHT22;8598;50.508;10.436;2023-08-30T00:08:47;11.20;99.90
16964;DHT22;8598;50.508;10.436;2023-08-30T00:11:15;11.20;99.90
16964;DHT22;8598;50.508;10.436;2023-08-30T00:13:42;11.20;99.90
16964;DHT22;8598;50.508;10.436;2023-08-30T00:16:08;11.20;99.90
16964;DHT22;8598;50.508;10.436;2023-08-30T00:18:35;11.10;99.90
16964;DHT22;8598;50.508;10.436;2023-08-30T00:21:02;11.10;99.90
16964;DHT22;8598;50.508;10.436;2023-08-30T00:23:28;11.00;99.90
16964;DHT22;8598;50.508;10.436;2023-08-30T00:25:55;10.90;99.90
16964;DHT22;8598;50.508;10.436;2023-08-30T00:28:23;11.00;99.90
16964;DHT22;8598;50.508;10.436;2023-08-30T00:30:53;11.00;99.90
16964;DHT22;8598;50.508;10.436;2023-08-30T00:33:20;10.90;99.90
16964;DHT22;8598;50.508;10.436;2023-08-30T00:35:47;10.80;99.90
16964;DHT22;8598;50.508;10.436;2023-08-30T00:38:21;10.80;99.90
16964;DHT22;8598;50.508;10.436;2023-08-30T00:40:48;10.80;99.90
16964;DHT22;8598;50.508;10.436;2023-08-30T00:43:14;10.80;99.90
16964;DHT22;8598;50.508;10.436;2023-08-30T00:45:42;10.80;99.90
16964;DHT22;8598;50.508;10.436;2023-08-30T00:48:09;10.60;99.90
16964;DHT22;8598;50.508;10.436;2023-08-30T00:50:37;10.60;99.90
16964;DHT22;8598;50.508;10.436;2023-08-30T00:53:04;10.60;99.90
16964;DHT22;8598;50.508;10.436;2023-08-30T00:55:32;10.60;99.90
16964;DHT22;8598;50.508;10.436;2023-08-30T00:57:59;10.70;99.90
16964;DHT22;8598;50.508;10.436;2023-08-30T01:00:27;10.60;99.90
16964;DHT22;8598;50.508;10.436;2023-08-30T01:02:55;10.50;99.90
16964;DHT22;8598;50.508;10.436;2023-08-30T01:05:22;10.50;99.90
16964;DHT22;8598;50.508;10.436;2023-08-30T01:07:50;10.60;99.90
16964;DHT22;8598;50.508;10.436;2023-08-30T01:10:17;10.50;99.90
16964;DHT22;8598;50.508;10.436;2023-08-30T01:12:47;10.50;99.90
16964;DHT22;8598;50.508;10.436;2023-08-30T01:15:19;10.40;99.90
16964;DHT22;8598;50.508;10.436;2023-08-30T01:17:47;10.50;99.90
16964;DHT22;8598;50.508;10.436;2023-08-30T01:20:16;10.50;99.90
16964;DHT22;8598;50.508;10.436;2023-08-30T01:22:49;10.50;99.90
16964;DHT22;8598;50.508;10.436;2023-08-30T01:25:31;10.60;99.90
16964;DHT22;8598;50.508;10.436;2023-08-30T01:28:03;10.60;99.90
16964;DHT22;8598;50.508;10.436;2023-08-30T01:30:32;10.70;99.90
16964;DHT22;8598;50.508;10.436;2023-08-30T01:33:00;10.60;99.90
16964;DHT22;8598;50.508;10.436;2023-08-30T01:35:29;10.60;99.90
16964;DHT22;8598;50.508;10.436;2023-08-30T01:37:58;10.60;99.90
16964;DHT22;8598;50.508;10.436;2023-08-30T01:40:27;10.60;99.90
16964;DHT22;8598;50.508;10.436;2023-08-30T01:42:55;10.50;99.90
16964;DHT22;8598;50.508;10.436;2023-08-30T01:45:24;10.50;99.90
16964;DHT22;8598;50.508;10.436;2023-08-30T01:47:52;10.50;99.90
16964;DHT22;8598;50.508;10.436;2023-08-30T01:50:19;10.50;99.90
16964;DHT22;8598;50.508;10.436;2023-08-30T01:52:48;10.60;99.90
16964;DHT22;8598;50.508;10.436;2023-08-30T01:55:14;10.60;99.90
16964;DHT22;8598;50.508;10.436;2023-08-30T01:57:41;10.60;99.90
16964;DHT22;8598;50.508;10.436;2023-08-30T02:00:09;10.70;99.90
16964;DHT22;8598;50.508;10.436;2023-08-30T02:02:37;10.70;99.90
16964;DHT22;8598;50.508;10.436;2023-08-30T02:05:05;10.70;99.90
16964;DHT22;8598;50.508;10.436;2023-08-30T02:07:36;10.70;99.90
16964;DHT22;8598;50.508;10.436;2023-08-30T02:10:07;10.80;99.90
16964;DHT22;8598;50.508;10.436;2023-08-30T02:12:37;10.80;99.90
16964;DHT22;8598;50.508;10.436;2023-08-30T02:15:07;10.80;99.90
16964;DHT22;8598;50.508;10.436;2023-08-30T02:17:35;10.80;99.90
16964;DHT22;8598;50.508;10.436;2023-08-30T02:20:06;10.80;99.90
16964;DHT22;8598;50.508;10.436;2023-08-30T02:22:33;10.80;99.90
16964;DHT22;8598;50.508;10.436;2023-08-30T02:25:00;10.80;99.90
16964;DHT22;8598;50.508;10.436;2023-08-30T02:27:30;10.90;99.90
16964;DHT22;8598;50.508;10.436;2023-08-30T02:29:57;10.90;99.90
16964;DHT22;8598;50.508;10.436;2023-08-30T02:32:23;11.00;99.90
16964;DHT22;8598;50.508;10.436;2023-08-30T02:34:51;10.90;99.90
16964;DHT22;8598;50.508;10.436;2023-08-30T02:37:20;10.90;99.90
16964;DHT22;8598;50.508;10.436;2023-08-30T02:39:47;11.00;99.90
16964;DHT22;8598;50.508;10.436;2023-08-30T02:42:13;10.90;99.90
16964;DHT22;8598;50.508;10.436;2023-08-30T02:44:40;11.00;99.90
16964;DHT22;8598;50.508;10.436;2023-08-30T02:47:07;10.90;99.90
16964;DHT22;8598;50.508;10.436;2023-08-30T02:49:34;11.00;99.90
16964;DHT22;8598;50.508;10.436;2023-08-30T02:52:00;10.90;99.90
16964;DHT22;8598;50.508;10.436;2023-08-30T02:54:29;10.90;99.90
16964;DHT22;8598;50.508;10.436;2023-08-30T02:56:55;10.80;99.90
16964;DHT22;8598;50.508;10.436;2023-08-30T02:59:22;10.90;99.90
16964;DHT22;8598;50.508;10.436;2023-08-30T03:01:49;10.80;99.90
16964;DHT22;8598;50.508;10.436;2023-08-30T03:04:15;10.90;99.90
16964;DHT22;8598;50.508;10.436;2023-08-30T03:06:43;10.90;99.90
16964;DHT22;8598;50.508;10.436;2023-08-30T03:09:09;10.90;99.90
16964;DHT22;8598;50.508;10.436;2023-08-30T03:11:38;10.80;99.90
16964;DHT22;8598;50.508;10.436;2023-08-30T03:14:05;10.80;99.90
16964;DHT22;8598;50.508;10.436;2023-08-30T03:16:31;10.70;99.90
16964;DHT22;8598;50.508;10.436;2023-08-30T03:18:58;10.60;99.90
16964;DHT22;8598;50.508;10.436;2023-08-30T03:21:26;10.50;99.90
16964;DHT22;8598;50.508;10.436;2023-08-30T03:23:52;10.50;99.90
16964;DHT22;8598;50.508;10.436;2023-08-30T03:26:19;10.60;99.90
16964;DHT22;8598;50.508;10.436;2023-08-30T03:28:47;10.60;99.90
16964;DHT22;8598;50.508;10.436;2023-08-30T03:31:15;10.50;99.90
16964;DHT22;8598;50.508;10.436;2023-08-30T03:33:42;10.60;99.90
16964;DHT22;8598;50.508;10.436;2023-08-30T03:36:10;10.70;99.90
16964;DHT22;8598;50.508;10.436;2023-08-30T03:38:37;10.70;99.90
16964;DHT22;8598;50.508;10.436;2023-08-30T03:41:04;10.60;99.90
16964;DHT22;8598;50.508;10.436;2023-08-30T03:43:31;10.70;99.90
16964;DHT22;8598;50.508;10.436;2023-08-30T03:46:00;10.70;99.90
16964;DHT22;8598;50.508;10.436;2023-08-30T03:48:27;10.70;99.90
16964;DHT22;8598;50.508;10.436;2023-08-30T03:50:54;10.70;99.90
16964;DHT22;8598;50.508;10.436;2023-08-30T03:53:22;10.70;99.90
16964;DHT22;8598;50.508;10.436;2023-08-30T03:55:49;10.70;99.90
16964;DHT22;8598;50.508;10.436;2023-08-30T03:58:16;10.60;99.90
16964;DHT22;8598;50.508;10.436;2023-08-30T04:00:43;10.50;99.90
16964;DHT22;8598;50.508;10.436;2023-08-30T04:03:13;10.50;99.90
16964;DHT22;8598;50.508;10.436;2023-08-30T04:05:40;10.50;99.90
16964;DHT22;8598;50.508;10.436;2023-08-30T04:08:08;10.50;99.90
16964;DHT22;8598;50.508;10.436;2023-08-30T04:10:35;10.50;99.90
16964;DHT22;8598;50.508;10.436;2023-08-30T04:13:02;10.40;99.90
16964;DHT22;8598;50.508;10.436;2023-08-30T04:15:29;10.40;99.90
16964;DHT22;8598;50.508;10.436;2023-08-30T04:17:55;10.40;99.90
16964;DHT22;8598;50.508;10.436;2023-08-30T04:20:23;10.40;99.90
16964;DHT22;8598;50.508;10.436;2023-08-30T04:22:50;10.50;99.90
16964;DHT22;8598;50.508;10.436;2023-08-30T04:25:17;10.40;99.90
16964;DHT22;8598;50.508;10.436;2023-08-30T04:27:43;10.50;99.90
16964;DHT22;8598;50.508;10.436;2023-08-30T04:30:11;10.40;99.90
16964;DHT22;8598;50.508;10.436;2023-08-30T04:32:38;10.40;99.90
16964;DHT22;8598;50.508;10.436;2023-08-30T04:35:06;10.30;99.90
16964;DHT22;8598;50.508;10.436;2023-08-30T04:37:34;10.40;99.90
16964;DHT22;8598;50.508;10.436;2023-08-30T04:40:01;10.40;99.90
16964;DHT22;8598;50.508;10.436;2023-08-30T04:42:28;10.40;99.90
16964;DHT22;8598;50.508;10.436;2023-08-30T04:44:55;10.40;99.90
16964;DHT22;8598;50.508;10.436;2023-08-30T04:47:24;10.40;99.90
16964;DHT22;8598;50.508;10.436;2023-08-30T04:49:51;10.40;99.90
16964;DHT22;8598;50.508;10.436;2023-08-30T04:52:18;10.30;99.90
16964;DHT22;8598;50.508;10.436;2023-08-30T04:54:46;10.40;99.90
16964;DHT22;8598;50.508;10.436;2023-08-30T04:57:14;10.30;99.90
16964;DHT22;8598;50.508;10.436;2023-08-30T04:59:42;10.40;99.90
16964;DHT22;8598;50.508;10.436;2023-08-30T05:02:08;10.20;99.90
16964;DHT22;8598;50.508;10.436;2023-08-30T05:04:35;10.20;99.90
16964;DHT22;8598;50.508;10.436;2023-08-30T05:07:02;10.20;99.90
16964;DHT22;8598;50.508;10.436;2023-08-30T05:09:29;10.20;99.90
16964;DHT22;8598;50.508;10.436;2023-08-30T05:11:59;10.20;99.90
16964;DHT22;8598;50.508;10.436;2023-08-30T05:14:25;10.10;99.90
16964;DHT22;8598;50.508;10.436;2023-08-30T05:16:52;10.20;99.90
16964;DHT22;8598;50.508;10.436;2023-08-30T05:19:19;10.10;99.90
16964;DHT22;8598;50.508;10.436;2023-08-30T05:21:46;10.10;99.90
16964;DHT22;8598;50.508;10.436;2023-08-30T05:24:16;10.10;99.90
16964;DHT22;8598;50.508;10.436;2023-08-30T05:26:43;9.90;99.90
16964;DHT22;8598;50.508;10.436;2023-08-30T05:29:13;10.00;99.90
16964;DHT22;8598;50.508;10.436;2023-08-30T05:31:40;10.20;99.90
16964;DHT22;8598;50.508;10.436;2023-08-30T05:34:07;10.20;99.90
16964;DHT22;8598;50.508;10.436;2023-08-30T05:36:34;10.10;99.90
16964;DHT22;8598;50.508;10.436;2023-08-30T05:39:00;10.20;99.90
16964;DHT22;8598;50.508;10.436;2023-08-30T05:41:28;10.30;99.90
16964;DHT22;8598;50.508;10.436;2023-08-30T05:43:55;10.20;99.90
16964;DHT22;8598;50.508;10.436;2023-08-30T05:46:23;10.30;99.90
16964;DHT22;8598;50.508;10.436;2023-08-30T05:48:50;10.40;99.90
16964;DHT22;8598;50.508;10.436;2023-08-30T05:51:17;10.50;99.90
16964;DHT22;8598;50.508;10.436;2023-08-30T05:53:45;10.60;99.90
16964;DHT22;8598;50.508;10.436;2023-08-30T05:56:12;10.70;99.90
16964;DHT22;8598;50.508;10.436;2023-08-30T05:58:39;10.70;99.90
16964;DHT22;8598;50.508;10.436;2023-08-30T06:01:06;10.80;99.90
16964;DHT22;8598;50.508;10.436;2023-08-30T06:03:34;10.80;99.90
16964;DHT22;8598;50.508;10.436;2023-08-30T06:06:01;10.80;99.90
16964;DHT22;8598;50.508;10.436;2023-08-30T06:08:27;10.80;99.90
16964;DHT22;8598;50.508;10.436;2023-08-30T06:10:54;10.80;99.90
16964;DHT22;8598;50.508;10.436;2023-08-30T06:13:21;10.90;99.90
16964;DHT22;8598;50.508;10.436;2023-08-30T06:15:50;10.90;99.90
16964;DHT22;8598;50.508;10.436;2023-08-30T06:18:17;11.00;99.90
16964;DHT22;8598;50.508;10.436;2023-08-30T06:20:45;11.00;99.90
16964;DHT22;8598;50.508;10.436;2023-08-30T06:23:13;11.20;99.90
16964;DHT22;8598;50.508;10.436;2023-08-30T06:25:40;11.30;99.90
16964;DHT22;8598;50.508;10.436;2023-08-30T06:28:06;11.50;99.90
16964;DHT22;8598;50.508;10.436;2023-08-30T06:30:32;11.60;99.90
16964;DHT22;8598;50.508;10.436;2023-08-30T06:32:59;11.90;99.90
16964;DHT22;8598;50.508;10.436;2023-08-30T06:35:26;12.10;99.90
16964;DHT22;8598;50.508;10.436;2023-08-30T06:37:54;12.10;99.90
16964;DHT22;8598;50.508;10.436;2023-08-30T06:40:21;12.20;99.90
16964;DHT22;8598;50.508;10.436;2023-08-30T06:42:48;12.20;99.90
16964;DHT22;8598;50.508;10.436;2023-08-30T06:45:15;12.10;99.90
16964;DHT22;8598;50.508;10.436;2023-08-30T06:47:42;12.20;99.90
16964;DHT22;8598;50.508;10.436;2023-08-30T06:50:09;12.30;99.90
16964;DHT22;8598;50.508;10.436;2023-08-30T06:52:36;12.30;99.90
16964;DHT22;8598;50.508;10.436;2023-08-30T06:55:04;12.30;99.90
16964;DHT22;8598;50.508;10.436;2023-08-30T06:57:31;12.20;99.90
16964;DHT22;8598;50.508;10.436;2023-08-30T06:59:58;12.20;99.90
16964;DHT22;8598;50.508;10.436;2023-08-30T07:02:33;12.40;99.90
16964;DHT22;8598;50.508;10.436;2023-08-30T07:04:59;12.40;99.90
16964;DHT22;8598;50.508;10.436;2023-08-30T07:07:26;12.40;99.90
16964;DHT22;8598;50.508;10.436;2023-08-30T07:09:53;12.40;99.90
16964;DHT22;8598;50.508;10.436;2023-08-30T07:12:21;12.40;99.90
16964;DHT22;8598;50.508;10.436;2023-08-30T07:14:48;12.50;99.90
16964;DHT22;8598;50.508;10.436;2023-08-30T07:17:14;12.50;99.90
16964;DHT22;8598;50.508;10.436;2023-08-30T07:19:41;12.70;99.90
16964;DHT22;8598;50.508;10.436;2023-08-30T07:22:08;12.90;99.90
16964;DHT22;8598;50.508;10.436;2023-08-30T07:24:34;13.00;99.90
16964;DHT22;8598;50.508;10.436;2023-08-30T07:27:01;13.10;99.90
16964;DHT22;8598;50.508;10.436;2023-08-30T07:29:29;13.30;99.90
16964;DHT22;8598;50.508;10.436;2023-08-30T07:31:56;13.00;99.90
16964;DHT22;8598;50.508;10.436;2023-08-30T07:34:22;13.20;99.90
16964;DHT22;8598;50.508;10.436;2023-08-30T07:36:49;13.20;99.90
16964;DHT22;8598;50.508;10.436;2023-08-30T07:39:16;13.30;99.90
16964;DHT22;8598;50.508;10.436;2023-08-30T07:41:42;13.30;99.90
16964;DHT22;8598;50.508;10.436;2023-08-30T07:44:09;13.40;99.90
16964;DHT22;8598;50.508;10.436;2023-08-30T07:46:37;13.40;99.90
16964;DHT22;8598;50.508;10.436;2023-08-30T07:49:04;13.60;99.90
16964;DHT22;8598;50.508;10.436;2023-08-30T07:51:30;13.70;99.90
16964;DHT22;8598;50.508;10.436;2023-08-30T07:53:57;14.00;99.90
16964;DHT22;8598;50.508;10.436;2023-08-30T07:56:24;14.10;99.90
16964;DHT22;8598;50.508;10.436;2023-08-30T07:58:51;14.20;99.90
16964;DHT22;8598;50.508;10.436;2023-08-30T08:01:18;14.30;99.90
16964;DHT22;8598;50.508;10.436;2023-08-30T08:03:46;14.30;99.90
16964;DHT22;8598;50.508;10.436;2023-08-30T08:06:13;14.20;99.90
16964;DHT22;8598;50.508;10.436;2023-08-30T08:08:39;14.70;99.90
16964;DHT22;8598;50.508;10.436;2023-08-30T08:11:06;15.20;99.90
16964;DHT22;8598;50.508;10.436;2023-08-30T08:13:33;15.50;99.90
16964;DHT22;8598;50.508;10.436;2023-08-30T08:15:59;15.70;99.90
16964;DHT22;8598;50.508;10.436;2023-08-30T08:18:26;15.70;99.90
16964;DHT22;8598;50.508;10.436;2023-08-30T08:20:54;15.90;99.90
16964;DHT22;8598;50.508;10.436;2023-08-30T08:23:21;16.00;99.90
16964;DHT22;8598;50.508;10.436;2023-08-30T08:25:48;15.30;99.90
16964;DHT22;8598;50.508;10.436;2023-08-30T08:28:14;15.00;99.90
16964;DHT22;8598;50.508;10.436;2023-08-30T08:30:43;15.00;99.90
16964;DHT22;8598;50.508;10.436;2023-08-30T08:33:10;14.90;99.90
16964;DHT22;8598;50.508;10.436;2023-08-30T08:35:37;15.20;99.90
16964;DHT22;8598;50.508;10.436;2023-08-30T08:38:05;15.20;99.90
16964;DHT22;8598;50.508;10.436;2023-08-30T08:40:31;15.40;99.90
16964;DHT22;8598;50.508;10.436;2023-08-30T08:42:58;15.30;99.90
16964;DHT22;8598;50.508;10.436;2023-08-30T08:45:25;15.40;99.90
16964;DHT22;8598;50.508;10.436;2023-08-30T08:47:52;15.30;99.90
16964;DHT22;8598;50.508;10.436;2023-08-30T08:50:19;15.00;99.90
16964;DHT22;8598;50.508;10.436;2023-08-30T08:52:46;15.10;99.90
16964;DHT22;8598;50.508;10.436;2023-08-30T08:55:14;15.00;99.90
16964;DHT22;8598;50.508;10.436;2023-08-30T08:57:42;14.80;99.90
16964;DHT22;8598;50.508;10.436;2023-08-30T09:00:11;14.80;99.90
16964;DHT22;8598;50.508;10.436;2023-08-30T09:02:39;14.90;99.90
16964;DHT22;8598;50.508;10.436;2023-08-30T09:05:07;15.00;99.90
16964;DHT22;8598;50.508;10.436;2023-08-30T09:07:34;15.10;99.90
16964;DHT22;8598;50.508;10.436;2023-08-30T09:10:02;15.20;99.90
16964;DHT22;8598;50.508;10.436;2023-08-30T09:12:34;15.30;99.90
16964;DHT22;8598;50.508;10.436;2023-08-30T09:15:01;15.80;99.90
16964;DHT22;8598;50.508;10.436;2023-08-30T09:17:36;15.90;99.90
16964;DHT22;8598;50.508;10.436;2023-08-30T09:20:07;16.10;99.90
16964;DHT22;8598;50.508;10.436;2023-08-30T09:22:38;16.30;99.90
16964;DHT22;8598;50.508;10.436;2023-08-30T09:25:06;16.20;99.90
16964;DHT22;8598;50.508;10.436;2023-08-30T09:27:35;16.10;99.90
16964;DHT22;8598;50.508;10.436;2023-08-30T09:30:03;16.50;99.90
16964;DHT22;8598;50.508;10.436;2023-08-30T09:32:31;17.10;99.90
16964;DHT22;8598;50.508;10.436;2023-08-30T09:34:57;17.30;99.90
16964;DHT22;8598;50.508;10.436;2023-08-30T09:37:24;17.20;99.90
16964;DHT22;8598;50.508;10.436;2023-08-30T09:39:52;17.20;99.90
16964;DHT22;8598;50.508;10.436;2023-08-30T09:42:19;17.10;99.90
16964;DHT22;8598;50.508;10.436;2023-08-30T09:44:47;17.60;99.90
16964;DHT22;8598;50.508;10.436;2023-08-30T09:47:14;17.70;99.90
16964;DHT22;8598;50.508;10.436;2023-08-30T09:49:43;17.70;99.90
16964;DHT22;8598;50.508;10.436;2023-08-30T09:52:12;17.20;99.90
16964;DHT22;8598;50.508;10.436;2023-08-30T09:54:41;17.20;99.90
16964;DHT22;8598;50.508;10.436;2023-08-30T09:57:09;17.50;99.90
16964;DHT22;8598;50.508;10.436;2023-08-30T09:59:36;17.40;99.90
16964;DHT22;8598;50.508;10.436;2023-08-30T10:02:05;17.80;99.90
16964;DHT22;8598;50.508;10.436;2023-08-30T10:04:32;17.80;99.90
16964;DHT22;8598;50.508;10.436;2023-08-30T10:06:59;17.90;99.90
16964;DHT22;8598;50.508;10.436;2023-08-30T10:09:28;18.00;99.90
16964;DHT22;8598;50.508;10.436;2023-08-30T10:11:57;18.00;99.90
16964;DHT22;8598;50.508;10.436;2023-08-30T10:14:24;18.40;99.90
16964;DHT22;8598;50.508;10.436;2023-08-30T10:16:51;18.30;99.90
16964;DHT22;8598;50.508;10.436;2023-08-30T10:19:27;18.40;99.90
16964;DHT22;8598;50.508;10.436;2023-08-30T10:22:00;19.00;99.90
16964;DHT22;8598;50.508;10.436;2023-08-30T10:24:28;18.90;99.90
16964;DHT22;8598;50.508;10.436;2023-08-30T10:26:56;19.00;99.90
16964;DHT22;8598;50.508;10.436;2023-08-30T10:29:24;18.70;99.90
16964;DHT22;8598;50.508;10.436;2023-08-30T10:31:52;18.50;99.90
16964;DHT22;8598;50.508;10.436;2023-08-30T10:34:19;18.80;99.90
16964;DHT22;8598;50.508;10.436;2023-08-30T10:36:59;18.80;99.90
16964;DHT22;8598;50.508;10.436;2023-08-30T10:39:33;19.00;99.90
16964;DHT22;8598;50.508;10.436;2023-08-30T10:42:06;19.00;99.90
16964;DHT22;8598;50.508;10.436;2023-08-30T10:44:33;19.30;99.90
16964;DHT22;8598;50.508;10.436;2023-08-30T10:47:02;19.40;99.90
16964;DHT22;8598;50.508;10.436;2023-08-30T10:49:29;19.30;99.90
16964;DHT22;8598;50.508;10.436;2023-08-30T10:52:12;19.00;99.90
16964;DHT22;8598;50.508;10.436;2023-08-30T10:54:38;19.30;99.90
16964;DHT22;8598;50.508;10.436;2023-08-30T10:57:05;19.00;99.90
16964;DHT22;8598;50.508;10.436;2023-08-30T10:59:38;19.00;99.90
16964;DHT22;8598;50.508;10.436;2023-08-30T11:02:06;19.30;99.90
16964;DHT22;8598;50.508;10.436;2023-08-30T11:04:33;18.80;99.90
16964;DHT22;8598;50.508;10.436;2023-08-30T11:07:07;18.80;99.90
16964;DHT22;8598;50.508;10.436;2023-08-30T11:09:33;18.90;99.90
16964;DHT22;8598;50.508;10.436;2023-08-30T11:12:05;19.30;99.90
16964;DHT22;8598;50.508;10.436;2023-08-30T11:14:32;19.00;99.90
16964;DHT22;8598;50.508;10.436;2023-08-30T11:16:58;19.30;99.90
16964;DHT22;8598;50.508;10.436;2023-08-30T11:19:29;19.60;99.90
16964;DHT22;8598;50.508;10.436;2023-08-30T11:21:56;19.90;99.90
16964;DHT22;8598;50.508;10.436;2023-08-30T11:24:24;19.90;99.90
16964;DHT22;8598;50.508;10.436;2023-08-30T11:26:54;19.80;99.90
16964;DHT22;8598;50.508;10.436;2023-08-30T11:29:21;19.50;99.90
16964;DHT22;8598;50.508;10.436;2023-08-30T11:31:49;19.50;99.90
16964;DHT22;8598;50.508;10.436;2023-08-30T11:34:20;19.40;99.90
16964;DHT22;8598;50.508;10.436;2023-08-30T11:36:48;19.00;99.90
16964;DHT22;8598;50.508;10.436;2023-08-30T11:39:16;18.70;99.90
16964;DHT22;8598;50.508;10.436;2023-08-30T11:41:44;18.60;99.90
16964;DHT22;8598;50.508;10.436;2023-08-30T11:44:11;18.60;99.90
16964;DHT22;8598;50.508;10.436;2023-08-30T11:46:38;18.50;99.90
16964;DHT22;8598;50.508;10.436;2023-08-30T11:49:05;18.60;99.90
16964;DHT22;8598;50.508;10.436;2023-08-30T11:51:31;18.70;99.90
16964;DHT22;8598;50.508;10.436;2023-08-30T11:53:59;18.70;99.90
16964;DHT22;8598;50.508;10.436;2023-08-30T11:56:27;18.70;99.90
16964;DHT22;8598;50.508;10.436;2023-08-30T11:58:56;18.70;99.90
16964;DHT22;8598;50.508;10.436;2023-08-30T12:01:23;18.60;99.90
16964;DHT22;8598;50.508;10.436;2023-08-30T12:03:49;19.00;99.90
16964;DHT22;8598;50.508;10.436;2023-08-30T12:06:17;19.40;99.90
16964;DHT22;8598;50.508;10.436;2023-08-30T12:08:44;19.90;99.90
16964;DHT22;8598;50.508;10.436;2023-08-30T12:11:18;20.10;99.90
16964;DHT22;8598;50.508;10.436;2023-08-30T12:13:45;20.30;99.90
16964;DHT22;8598;50.508;10.436;2023-08-30T12:16:17;19.90;99.90
16964;DHT22;8598;50.508;10.436;2023-08-30T12:18:44;20.00;99.90
16964;DHT22;8598;50.508;10.436;2023-08-30T12:21:13;19.90;99.90
16964;DHT22;8598;50.508;10.436;2023-08-30T12:23:40;19.90;99.90
16964;DHT22;8598;50.508;10.436;2023-08-30T12:26:08;19.90;99.90
16964;DHT22;8598;50.508;10.436;2023-08-30T12:28:36;19.90;99.90
16964;DHT22;8598;50.508;10.436;2023-08-30T12:31:03;20.40;99.90
16964;DHT22;8598;50.508;10.436;2023-08-30T12:33:31;20.60;99.90
16964;DHT22;8598;50.508;10.436;2023-08-30T12:35:58;20.60;99.90
16964;DHT22;8598;50.508;10.436;2023-08-30T12:38:24;20.60;99.90
16964;DHT22;8598;50.508;10.436;2023-08-30T12:40:53;20.50;99.90
16964;DHT22;8598;50.508;10.436;2023-08-30T12:43:20;20.60;99.90
16964;DHT22;8598;50.508;10.436;2023-08-30T12:45:48;20.60;99.90
16964;DHT22;8598;50.508;10.436;2023-08-30T12:48:16;20.60;99.90
16964;DHT22;8598;50.508;10.436;2023-08-30T12:50:45;20.60;99.90
16964;DHT22;8598;50.508;10.436;2023-08-30T12:53:12;20.80;99.90
16964;DHT22;8598;50.508;10.436;2023-08-30T12:55:40;20.50;99.90
16964;DHT22;8598;50.508;10.436;2023-08-30T12:58:07;20.80;99.90
16964;DHT22;8598;50.508;10.436;2023-08-30T13:00:35;20.50;99.90
16964;DHT22;8598;50.508;10.436;2023-08-30T13:03:02;20.50;99.90
16964;DHT22;8598;50.508;10.436;2023-08-30T13:05:29;20.40;99.90
16964;DHT22;8598;50.508;10.436;2023-08-30T13:07:59;20.20;99.90
16964;DHT22;8598;50.508;10.436;2023-08-30T13:10:26;20.20;99.90
16964;DHT22;8598;50.508;10.436;2023-08-30T13:12:52;20.30;99.90
16964;DHT22;8598;50.508;10.436;2023-08-30T13:15:19;20.60;99.90
16964;DHT22;8598;50.508;10.436;2023-08-30T13:17:46;20.60;99.90
16964;DHT22;8598;50.508;10.436;2023-08-30T13:20:12;20.30;99.90
16964;DHT22;8598;50.508;10.436;2023-08-30T13:22:39;20.20;99.90
16964;DHT22;8598;50.508;10.436;2023-08-30T13:25:08;20.30;99.90
16964;DHT22;8598;50.508;10.436;2023-08-30T13:27:35;20.30;99.90
16964;DHT22;8598;50.508;10.436;2023-08-30T13:30:02;20.30;99.90
16964;DHT22;8598;50.508;10.436;2023-08-30T13:32:28;20.30;99.90
16964;DHT22;8598;50.508;10.436;2023-08-30T13:34:55;20.10;99.90
16964;DHT22;8598;50.508;10.436;2023-08-30T13:37:22;20.00;99.90
16964;DHT22;8598;50.508;10.436;2023-08-30T13:39:49;19.80;99.90
16964;DHT22;8598;50.508;10.436;2023-08-30T13:42:17;19.90;99.90
16964;DHT22;8598;50.508;10.436;2023-08-30T13:44:44;19.90;99.90
16964;DHT22;8598;50.508;10.436;2023-08-30T13:47:11;19.80;99.90
16964;DHT22;8598;50.508;10.436;2023-08-30T13:49:38;19.80;99.90
16964;DHT22;8598;50.508;10.436;2023-08-30T13:52:05;19.90;99.90
16964;DHT22;8598;50.508;10.436;2023-08-30T13:54:32;19.80;99.90
16964;DHT22;8598;50.508;10.436;2023-08-30T13:56:59;19.60;99.90
16964;DHT22;8598;50.508;10.436;2023-08-30T13:59:27;19.50;99.90
16964;DHT22;8598;50.508;10.436;2023-08-30T14:01:56;19.50;99.90
16964;DHT22;8598;50.508;10.436;2023-08-30T14:04:24;19.50;99.90
16964;DHT22;8598;50.508;10.436;2023-08-30T14:06:51;19.40;99.90
16964;DHT22;8598;50.508;10.436;2023-08-30T14:09:17;19.30;99.90
16964;DHT22;8598;50.508;10.436;2023-08-30T14:11:44;19.30;99.90
16964;DHT22;8598;50.508;10.436;2023-08-30T14:14:11;19.30;99.90
16964;DHT22;8598;50.508;10.436;2023-08-30T14:16:39;19.30;99.90
16964;DHT22;8598;50.508;10.436;2023-08-30T14:19:05;19.40;99.90
16964;DHT22;8598;50.508;10.436;2023-08-30T14:21:32;19.20;99.90
16964;DHT22;8598;50.508;10.436;2023-08-30T14:23:59;19.00;99.90
16964;DHT22;8598;50.508;10.436;2023-08-30T14:26:27;18.80;99.90
16964;DHT22;8598;50.508;10.436;2023-08-30T14:28:54;18.70;99.90
16964;DHT22;8598;50.508;10.436;2023-08-30T14:31:21;18.70;99.90
16964;DHT22;8598;50.508;10.436;2023-08-30T14:33:49;18.90;99.90
16964;DHT22;8598;50.508;10.436;2023-08-30T14:36:15;19.20;99.90
16964;DHT22;8598;50.508;10.436;2023-08-30T14:38:42;19.50;99.90
16964;DHT22;8598;50.508;10.436;2023-08-30T14:41:09;19.50;99.90
16964;DHT22;8598;50.508;10.436;2023-08-30T14:43:36;19.50;99.90
16964;DHT22;8598;50.508;10.436;2023-08-30T14:46:03;19.60;99.90
16964;DHT22;8598;50.508;10.436;2023-08-30T14:48:31;19.70;99.90
16964;DHT22;8598;50.508;10.436;2023-08-30T14:51:00;19.90;99.90
16964;DHT22;8598;50.508;10.436;2023-08-30T14:53:27;19.70;99.90
16964;DHT22;8598;50.508;10.436;2023-08-30T14:55:54;19.70;99.90
16964;DHT22;8598;50.508;10.436;2023-08-30T14:58:21;19.60;99.90
16964;DHT22;8598;50.508;10.436;2023-08-30T15:00:48;19.50;99.90
16964;DHT22;8598;50.508;10.436;2023-08-30T15:03:14;19.40;99.90
16964;DHT22;8598;50.508;10.436;2023-08-30T15:05:41;19.20;99.90
16964;DHT22;8598;50.508;10.436;2023-08-30T15:08:09;19.40;99.90
16964;DHT22;8598;50.508;10.436;2023-08-30T15:10:36;19.50;99.90
16964;DHT22;8598;50.508;10.436;2023-08-30T15:13:03;19.30;99.90
16964;DHT22;8598;50.508;10.436;2023-08-30T15:15:30;19.20;99.90
16964;DHT22;8598;50.508;10.436;2023-08-30T15:17:57;19.10;99.90
16964;DHT22;8598;50.508;10.436;2023-08-30T15:20:23;19.10;99.90
16964;DHT22;8598;50.508;10.436;2023-08-30T15:22:51;19.10;99.90
16964;DHT22;8598;50.508;10.436;2023-08-30T15:25:19;19.20;99.90
16964;DHT22;8598;50.508;10.436;2023-08-30T15:27:45;19.20;99.90
16964;DHT22;8598;50.508;10.436;2023-08-30T15:30:13;19.30;99.90
16964;DHT22;8598;50.508;10.436;2023-08-30T15:32:40;19.30;99.90